sensor_id;sensor_type;location;lat;lon;timestamp;P1;durP1;ratioP1;P2;durP2;ratioP2
20482;SDS011;10400;53.198;6.592;2022-12-18T00:00:56;93.03;;;33.07;;
20482;SDS011;10400;53.198;6.592;2022-12-18T00:03:22;92.67;;;32.30;;
20482;SDS011;10400;53.198;6.592;2022-12-18T00:05:48;85.10;;;30.80;;
20482;SDS011;10400;53.198;6.592;2022-12-18T00:08:15;85.00;;;32.07;;
20482;SDS011;10400;53.198;6.592;2022-12-18T00:10:41;90.53;;;32.10;;
20482;SDS011;10400;53.198;6.592;2022-12-18T00:13:07;93.93;;;33.43;;
20482;SDS011;10400;53.198;6.592;2022-12-18T00:15:36;90.73;;;32.23;;
20482;SDS011;10400;53.198;6.592;2022-12-18T00:18:03;85.23;;;29.80;;
20482;SDS011;10400;53.198;6.592;2022-12-18T00:20:28;86.47;;;30.73;;
20482;SDS011;10400;53.198;6.592;2022-12-18T00:22:54;85.27;;;31.37;;
20482;SDS011;10400;53.198;6.592;2022-12-18T00:25:20;87.17;;;29.40;;
20482;SDS011;10400;53.198;6.592;2022-12-18T00:27:46;91.67;;;30.27;;
20482;SDS011;10400;53.198;6.592;2022-12-18T00:30:16;85.87;;;31.20;;
20482;SDS011;10400;53.198;6.592;2022-12-18T00:32:42;86.23;;;31.33;;
20482;SDS011;10400;53.198;6.592;2022-12-18T00:35:07;85.43;;;30.00;;
20482;SDS011;10400;53.198;6.592;2022-12-18T00:37:34;84.57;;;30.90;;
20482;SDS011;10400;53.198;6.592;2022-12-18T00:40:00;91.20;;;31.23;;
20482;SDS011;10400;53.198;6.592;2022-12-18T00:42:26;88.83;;;31.27;;
20482;SDS011;10400;53.198;6.592;2022-12-18T00:45:10;91.23;;;30.77;;
20482;SDS011;10400;53.198;6.592;2022-12-18T00:47:36;96.60;;;32.73;;
20482;SDS011;10400;53.198;6.592;2022-12-18T00:50:01;88.93;;;30.60;;
20482;SDS011;10400;53.198;6.592;2022-12-18T00:52:27;83.30;;;30.13;;
20482;SDS011;10400;53.198;6.592;2022-12-18T00:54:53;88.30;;;30.57;;
20482;SDS011;10400;53.198;6.592;2022-12-18T00:57:19;96.97;;;31.77;;
20482;SDS011;10400;53.198;6.592;2022-12-18T00:59:44;79.03;;;29.33;;
20482;SDS011;10400;53.198;6.592;2022-12-18T01:02:10;82.77;;;28.97;;
20482;SDS011;10400;53.198;6.592;2022-12-18T01:04:35;80.90;;;30.27;;
20482;SDS011;10400;53.198;6.592;2022-12-18T01:07:01;79.57;;;28.67;;
20482;SDS011;10400;53.198;6.592;2022-12-18T01:09:27;79.10;;;30.23;;
20482;SDS011;10400;53.198;6.592;2022-12-18T01:11:52;74.90;;;29.13;;
20482;SDS011;10400;53.198;6.592;2022-12-18T01:14:18;82.07;;;28.97;;
20482;SDS011;10400;53.198;6.592;2022-12-18T01:16:44;84.10;;;30.33;;
20482;SDS011;10400;53.198;6.592;2022-12-18T01:19:09;87.93;;;31.03;;
20482;SDS011;10400;53.198;6.592;2022-12-18T01:21:35;82.47;;;28.67;;
20482;SDS011;10400;53.198;6.592;2022-12-18T01:24:01;82.07;;;28.93;;
20482;SDS011;10400;53.198;6.592;2022-12-18T01:26:26;75.00;;;28.90;;
20482;SDS011;10400;53.198;6.592;2022-12-18T01:28:54;75.77;;;28.60;;
20482;SDS011;10400;53.198;6.592;2022-12-18T01:31:22;76.17;;;28.60;;
20482;SDS011;10400;53.198;6.592;2022-12-18T01:33:50;83.70;;;28.23;;
20482;SDS011;10400;53.198;6.592;2022-12-18T01:36:24;80.43;;;28.97;;
20482;SDS011;10400;53.198;6.592;2022-12-18T01:38:55;79.60;;;29.50;;
20482;SDS011;10400;53.198;6.592;2022-12-18T01:41:22;78.30;;;28.77;;
20482;SDS011;10400;53.198;6.592;2022-12-18T01:49:50;77.93;;;28.30;;
20482;SDS011;10400;53.198;6.592;2022-12-18T01:52:17;71.67;;;27.10;;
20482;SDS011;10400;53.198;6.592;2022-12-18T01:54:43;79.37;;;28.73;;
20482;SDS011;10400;53.198;6.592;2022-12-18T01:57:10;76.80;;;28.80;;
20482;SDS011;10400;53.198;6.592;2022-12-18T01:59:36;82.33;;;28.50;;
20482;SDS011;10400;53.198;6.592;2022-12-18T02:02:03;87.10;;;30.40;;
20482;SDS011;10400;53.198;6.592;2022-12-18T02:04:29;86.30;;;29.93;;
20482;SDS011;10400;53.198;6.592;2022-12-18T02:06:57;83.13;;;29.63;;
20482;SDS011;10400;53.198;6.592;2022-12-18T02:09:36;81.20;;;28.63;;
20482;SDS011;10400;53.198;6.592;2022-12-18T02:12:17;76.87;;;29.13;;
20482;SDS011;10400;53.198;6.592;2022-12-18T02:14:52;72.73;;;28.70;;
20482;SDS011;10400;53.198;6.592;2022-12-18T02:17:39;83.90;;;29.27;;
20482;SDS011;10400;53.198;6.592;2022-12-18T02:25:44;78.70;;;28.33;;
20482;SDS011;10400;53.198;6.592;2022-12-18T02:29:13;86.63;;;28.93;;
20482;SDS011;10400;53.198;6.592;2022-12-18T02:31:25;81.17;;;28.10;;
20482;SDS011;10400;53.198;6.592;2022-12-18T02:33:53;80.17;;;27.73;;
20482;SDS011;10400;53.198;6.592;2022-12-18T02:36:21;75.90;;;27.07;;
20482;SDS011;10400;53.198;6.592;2022-12-18T02:38:52;75.47;;;28.23;;
20482;SDS011;10400;53.198;6.592;2022-12-18T02:41:19;77.87;;;29.50;;
20482;SDS011;10400;53.198;6.592;2022-12-18T02:43:52;87.07;;;27.97;;
20482;SDS011;10400;53.198;6.592;2022-12-18T02:48:57;83.33;;;29.37;;
20482;SDS011;10400;53.198;6.592;2022-12-18T02:51:33;81.33;;;26.07;;
20482;SDS011;10400;53.198;6.592;2022-12-18T02:59:41;95.17;;;30.33;;
20482;SDS011;10400;53.198;6.592;2022-12-18T03:02:37;93.63;;;30.60;;
20482;SDS011;10400;53.198;6.592;2022-12-18T03:05:15;84.57;;;30.33;;
20482;SDS011;10400;53.198;6.592;2022-12-18T03:07:52;93.23;;;30.37;;
20482;SDS011;10400;53.198;6.592;2022-12-18T03:10:23;83.37;;;28.60;;
20482;SDS011;10400;53.198;6.592;2022-12-18T03:13:01;82.50;;;31.37;;
20482;SDS011;10400;53.198;6.592;2022-12-18T03:15:37;94.10;;;31.90;;
20482;SDS011;10400;53.198;6.592;2022-12-18T03:18:10;91.43;;;30.57;;
20482;SDS011;10400;53.198;6.592;2022-12-18T03:20:39;90.30;;;29.63;;
20482;SDS011;10400;53.198;6.592;2022-12-18T03:23:12;85.10;;;30.87;;
20482;SDS011;10400;53.198;6.592;2022-12-18T03:25:42;86.90;;;30.40;;
20482;SDS011;10400;53.198;6.592;2022-12-18T03:28:13;89.47;;;30.10;;
20482;SDS011;10400;53.198;6.592;2022-12-18T03:30:42;79.70;;;29.03;;
20482;SDS011;10400;53.198;6.592;2022-12-18T03:33:12;92.33;;;31.07;;
20482;SDS011;10400;53.198;6.592;2022-12-18T03:35:47;93.90;;;31.30;;
20482;SDS011;10400;53.198;6.592;2022-12-18T03:38:13;83.20;;;29.93;;
20482;SDS011;10400;53.198;6.592;2022-12-18T03:40:51;94.57;;;30.90;;
20482;SDS011;10400;53.198;6.592;2022-12-18T03:54:31;80.23;;;29.23;;
20482;SDS011;10400;53.198;6.592;2022-12-18T03:57:01;81.87;;;30.93;;
20482;SDS011;10400;53.198;6.592;2022-12-18T03:59:35;78.57;;;29.10;;
20482;SDS011;10400;53.198;6.592;2022-12-18T04:02:02;84.17;;;29.13;;
20482;SDS011;10400;53.198;6.592;2022-12-18T04:04:31;82.27;;;31.27;;
20482;SDS011;10400;53.198;6.592;2022-12-18T04:06:58;83.80;;;30.90;;
20482;SDS011;10400;53.198;6.592;2022-12-18T04:09:27;74.20;;;30.00;;
20482;SDS011;10400;53.198;6.592;2022-12-18T04:11:53;78.27;;;30.37;;
20482;SDS011;10400;53.198;6.592;2022-12-18T04:14:19;86.40;;;29.13;;
20482;SDS011;10400;53.198;6.592;2022-12-18T04:16:48;79.70;;;29.23;;
20482;SDS011;10400;53.198;6.592;2022-12-18T04:19:13;76.60;;;28.70;;
20482;SDS011;10400;53.198;6.592;2022-12-18T04:21:39;76.53;;;29.37;;
20482;SDS011;10400;53.198;6.592;2022-12-18T04:24:05;83.43;;;29.23;;
20482;SDS011;10400;53.198;6.592;2022-12-18T04:26:31;78.57;;;29.87;;
20482;SDS011;10400;53.198;6.592;2022-12-18T04:28:59;94.30;;;30.77;;
20482;SDS011;10400;53.198;6.592;2022-12-18T04:31:25;84.97;;;30.77;;
20482;SDS011;10400;53.198;6.592;2022-12-18T04:33:50;85.30;;;29.07;;
20482;SDS011;10400;53.198;6.592;2022-12-18T04:36:16;84.50;;;28.73;;
20482;SDS011;10400;53.198;6.592;2022-12-18T04:38:42;79.00;;;27.90;;
20482;SDS011;10400;53.198;6.592;2022-12-18T04:41:07;82.27;;;28.10;;
20482;SDS011;10400;53.198;6.592;2022-12-18T04:43:33;85.70;;;30.20;;
20482;SDS011;10400;53.198;6.592;2022-12-18T04:46:03;78.77;;;29.07;;
20482;SDS011;10400;53.198;6.592;2022-12-18T04:48:30;77.57;;;27.60;;
20482;SDS011;10400;53.198;6.592;2022-12-18T04:50:55;82.70;;;27.53;;
20482;SDS011;10400;53.198;6.592;2022-12-18T04:53:21;82.67;;;27.30;;
20482;SDS011;10400;53.198;6.592;2022-12-18T04:55:46;80.63;;;29.13;;
20482;SDS011;10400;53.198;6.592;2022-12-18T04:58:12;80.73;;;28.17;;
20482;SDS011;10400;53.198;6.592;2022-12-18T05:00:38;82.67;;;28.67;;
20482;SDS011;10400;53.198;6.592;2022-12-18T05:03:03;81.53;;;28.47;;
20482;SDS011;10400;53.198;6.592;2022-12-18T05:05:29;76.80;;;28.50;;
20482;SDS011;10400;53.198;6.592;2022-12-18T05:07:54;72.43;;;28.20;;
20482;SDS011;10400;53.198;6.592;2022-12-18T05:10:20;74.40;;;25.93;;
20482;SDS011;10400;53.198;6.592;2022-12-18T05:12:46;82.00;;;27.47;;
20482;SDS011;10400;53.198;6.592;2022-12-18T05:15:24;72.47;;;27.23;;
20482;SDS011;10400;53.198;6.592;2022-12-18T05:17:57;77.93;;;27.00;;
20482;SDS011;10400;53.198;6.592;2022-12-18T05:20:23;75.13;;;26.70;;
20482;SDS011;10400;53.198;6.592;2022-12-18T05:22:49;75.90;;;26.97;;
20482;SDS011;10400;53.198;6.592;2022-12-18T05:25:15;70.23;;;25.23;;
20482;SDS011;10400;53.198;6.592;2022-12-18T05:27:44;76.17;;;26.67;;
20482;SDS011;10400;53.198;6.592;2022-12-18T05:30:10;73.63;;;26.27;;
20482;SDS011;10400;53.198;6.592;2022-12-18T05:32:36;70.97;;;25.30;;
20482;SDS011;10400;53.198;6.592;2022-12-18T05:35:02;71.87;;;26.40;;
20482;SDS011;10400;53.198;6.592;2022-12-18T05:37:28;73.07;;;25.63;;
20482;SDS011;10400;53.198;6.592;2022-12-18T05:39:53;62.30;;;24.33;;
20482;SDS011;10400;53.198;6.592;2022-12-18T05:42:19;70.57;;;25.90;;
20482;SDS011;10400;53.198;6.592;2022-12-18T05:44:45;74.23;;;26.77;;
20482;SDS011;10400;53.198;6.592;2022-12-18T05:47:10;75.07;;;25.67;;
20482;SDS011;10400;53.198;6.592;2022-12-18T05:49:36;64.43;;;24.53;;
20482;SDS011;10400;53.198;6.592;2022-12-18T05:52:01;63.27;;;24.63;;
20482;SDS011;10400;53.198;6.592;2022-12-18T05:54:27;70.63;;;24.40;;
20482;SDS011;10400;53.198;6.592;2022-12-18T05:56:53;65.20;;;25.27;;
20482;SDS011;10400;53.198;6.592;2022-12-18T05:59:19;58.97;;;24.27;;
20482;SDS011;10400;53.198;6.592;2022-12-18T06:01:45;59.63;;;24.47;;
20482;SDS011;10400;53.198;6.592;2022-12-18T06:04:11;61.50;;;23.07;;
20482;SDS011;10400;53.198;6.592;2022-12-18T06:06:37;64.80;;;23.40;;
20482;SDS011;10400;53.198;6.592;2022-12-18T06:09:03;63.10;;;23.10;;
20482;SDS011;10400;53.198;6.592;2022-12-18T06:11:33;50.80;;;22.80;;
20482;SDS011;10400;53.198;6.592;2022-12-18T06:14:00;60.20;;;24.77;;
20482;SDS011;10400;53.198;6.592;2022-12-18T06:16:26;59.80;;;22.13;;
20482;SDS011;10400;53.198;6.592;2022-12-18T06:18:52;53.43;;;22.23;;
20482;SDS011;10400;53.198;6.592;2022-12-18T06:21:20;52.33;;;21.77;;
20482;SDS011;10400;53.198;6.592;2022-12-18T06:23:46;49.17;;;21.63;;
20482;SDS011;10400;53.198;6.592;2022-12-18T06:26:11;56.53;;;23.40;;
20482;SDS011;10400;53.198;6.592;2022-12-18T06:28:38;54.03;;;23.07;;
20482;SDS011;10400;53.198;6.592;2022-12-18T06:31:04;56.83;;;21.90;;
20482;SDS011;10400;53.198;6.592;2022-12-18T06:33:30;50.30;;;22.07;;
20482;SDS011;10400;53.198;6.592;2022-12-18T06:36:04;57.97;;;22.23;;
20482;SDS011;10400;53.198;6.592;2022-12-18T06:38:32;60.97;;;22.50;;
20482;SDS011;10400;53.198;6.592;2022-12-18T06:40:59;56.83;;;21.90;;
20482;SDS011;10400;53.198;6.592;2022-12-18T06:43:24;53.57;;;21.63;;
20482;SDS011;10400;53.198;6.592;2022-12-18T06:45:50;47.33;;;20.63;;
20482;SDS011;10400;53.198;6.592;2022-12-18T06:48:20;54.80;;;21.17;;
20482;SDS011;10400;53.198;6.592;2022-12-18T06:50:47;51.50;;;21.87;;
20482;SDS011;10400;53.198;6.592;2022-12-18T06:53:13;49.57;;;20.73;;
20482;SDS011;10400;53.198;6.592;2022-12-18T06:55:38;50.80;;;19.20;;
20482;SDS011;10400;53.198;6.592;2022-12-18T06:58:04;53.30;;;21.37;;
20482;SDS011;10400;53.198;6.592;2022-12-18T07:00:32;48.80;;;19.30;;
20482;SDS011;10400;53.198;6.592;2022-12-18T07:02:58;46.53;;;19.17;;
20482;SDS011;10400;53.198;6.592;2022-12-18T07:05:23;42.83;;;18.93;;
20482;SDS011;10400;53.198;6.592;2022-12-18T07:07:49;43.23;;;19.03;;
20482;SDS011;10400;53.198;6.592;2022-12-18T07:10:15;44.37;;;17.50;;
20482;SDS011;10400;53.198;6.592;2022-12-18T07:12:40;45.80;;;18.27;;
20482;SDS011;10400;53.198;6.592;2022-12-18T07:15:06;44.33;;;19.20;;
20482;SDS011;10400;53.198;6.592;2022-12-18T07:17:32;45.57;;;19.60;;
20482;SDS011;10400;53.198;6.592;2022-12-18T07:19:58;40.77;;;20.03;;
20482;SDS011;10400;53.198;6.592;2022-12-18T07:22:24;47.07;;;18.63;;
20482;SDS011;10400;53.198;6.592;2022-12-18T07:24:50;41.80;;;18.73;;
20482;SDS011;10400;53.198;6.592;2022-12-18T07:27:16;41.53;;;18.10;;
20482;SDS011;10400;53.198;6.592;2022-12-18T07:29:42;40.03;;;17.03;;
20482;SDS011;10400;53.198;6.592;2022-12-18T07:32:07;36.17;;;16.53;;
20482;SDS011;10400;53.198;6.592;2022-12-18T07:34:33;43.97;;;17.80;;
20482;SDS011;10400;53.198;6.592;2022-12-18T07:36:59;42.90;;;17.93;;
20482;SDS011;10400;53.198;6.592;2022-12-18T07:39:25;37.33;;;16.33;;
20482;SDS011;10400;53.198;6.592;2022-12-18T07:41:52;37.93;;;17.50;;
20482;SDS011;10400;53.198;6.592;2022-12-18T07:44:36;34.00;;;15.87;;
20482;SDS011;10400;53.198;6.592;2022-12-18T07:47:02;35.50;;;16.00;;
20482;SDS011;10400;53.198;6.592;2022-12-18T07:49:30;34.63;;;16.60;;
20482;SDS011;10400;53.198;6.592;2022-12-18T07:51:56;39.63;;;16.80;;
20482;SDS011;10400;53.198;6.592;2022-12-18T07:54:23;37.07;;;16.93;;
20482;SDS011;10400;53.198;6.592;2022-12-18T07:56:49;34.67;;;16.40;;
20482;SDS011;10400;53.198;6.592;2022-12-18T07:59:15;36.93;;;17.20;;
20482;SDS011;10400;53.198;6.592;2022-12-18T08:01:40;41.97;;;16.63;;
20482;SDS011;10400;53.198;6.592;2022-12-18T08:04:09;38.87;;;17.20;;
20482;SDS011;10400;53.198;6.592;2022-12-18T08:06:35;41.07;;;17.73;;
20482;SDS011;10400;53.198;6.592;2022-12-18T08:09:03;45.13;;;18.23;;
20482;SDS011;10400;53.198;6.592;2022-12-18T08:11:29;35.73;;;17.83;;
20482;SDS011;10400;53.198;6.592;2022-12-18T08:13:55;37.63;;;17.10;;
20482;SDS011;10400;53.198;6.592;2022-12-18T08:16:22;37.67;;;18.20;;
20482;SDS011;10400;53.198;6.592;2022-12-18T08:18:48;38.73;;;17.97;;
20482;SDS011;10400;53.198;6.592;2022-12-18T08:21:15;36.10;;;18.03;;
20482;SDS011;10400;53.198;6.592;2022-12-18T08:23:43;33.00;;;15.70;;
20482;SDS011;10400;53.198;6.592;2022-12-18T08:26:12;35.60;;;16.90;;
20482;SDS011;10400;53.198;6.592;2022-12-18T08:28:39;35.70;;;16.60;;
20482;SDS011;10400;53.198;6.592;2022-12-18T08:31:05;39.10;;;17.43;;
20482;SDS011;10400;53.198;6.592;2022-12-18T08:33:31;39.93;;;16.37;;
20482;SDS011;10400;53.198;6.592;2022-12-18T08:36:01;33.53;;;16.33;;
20482;SDS011;10400;53.198;6.592;2022-12-18T08:38:27;38.77;;;17.37;;
20482;SDS011;10400;53.198;6.592;2022-12-18T08:41:03;36.67;;;17.33;;
20482;SDS011;10400;53.198;6.592;2022-12-18T08:43:33;36.13;;;18.13;;
20482;SDS011;10400;53.198;6.592;2022-12-18T08:46:18;39.20;;;16.40;;
20482;SDS011;10400;53.198;6.592;2022-12-18T08:48:45;37.90;;;17.47;;
20482;SDS011;10400;53.198;6.592;2022-12-18T08:51:15;39.50;;;17.27;;
20482;SDS011;10400;53.198;6.592;2022-12-18T08:53:42;39.20;;;16.63;;
20482;SDS011;10400;53.198;6.592;2022-12-18T08:56:09;37.17;;;17.50;;
20482;SDS011;10400;53.198;6.592;2022-12-18T08:58:35;34.83;;;17.03;;
20482;SDS011;10400;53.198;6.592;2022-12-18T09:01:04;39.90;;;17.30;;
20482;SDS011;10400;53.198;6.592;2022-12-18T09:03:31;39.17;;;17.97;;
20482;SDS011;10400;53.198;6.592;2022-12-18T09:05:58;33.07;;;16.60;;
20482;SDS011;10400;53.198;6.592;2022-12-18T09:08:24;35.20;;;16.77;;
20482;SDS011;10400;53.198;6.592;2022-12-18T09:10:50;36.53;;;16.90;;
20482;SDS011;10400;53.198;6.592;2022-12-18T09:13:17;34.80;;;16.57;;
20482;SDS011;10400;53.198;6.592;2022-12-18T09:15:44;35.53;;;16.70;;
20482;SDS011;10400;53.198;6.592;2022-12-18T09:18:15;33.83;;;16.63;;
20482;SDS011;10400;53.198;6.592;2022-12-18T09:20:41;31.73;;;14.87;;
20482;SDS011;10400;53.198;6.592;2022-12-18T09:23:08;32.37;;;15.77;;
20482;SDS011;10400;53.198;6.592;2022-12-18T09:25:34;31.43;;;16.00;;
20482;SDS011;10400;53.198;6.592;2022-12-18T09:28:09;34.70;;;14.93;;
20482;SDS011;10400;53.198;6.592;2022-12-18T09:30:43;31.67;;;14.43;;
20482;SDS011;10400;53.198;6.592;2022-12-18T09:33:12;28.20;;;14.57;;
20482;SDS011;10400;53.198;6.592;2022-12-18T09:35:38;31.83;;;15.80;;
20482;SDS011;10400;53.198;6.592;2022-12-18T09:38:05;29.13;;;15.13;;
20482;SDS011;10400;53.198;6.592;2022-12-18T09:40:36;26.30;;;13.70;;
20482;SDS011;10400;53.198;6.592;2022-12-18T09:43:09;30.77;;;15.07;;
20482;SDS011;10400;53.198;6.592;2022-12-18T09:45:45;28.40;;;14.83;;
20482;SDS011;10400;53.198;6.592;2022-12-18T09:48:21;31.80;;;14.23;;
20482;SDS011;10400;53.198;6.592;2022-12-18T09:51:15;29.70;;;13.30;;
20482;SDS011;10400;53.198;6.592;2022-12-18T09:53:53;23.53;;;12.73;;
20482;SDS011;10400;53.198;6.592;2022-12-18T09:56:31;29.10;;;13.53;;
20482;SDS011;10400;53.198;6.592;2022-12-18T09:59:05;27.63;;;12.77;;
20482;SDS011;10400;53.198;6.592;2022-12-18T10:01:40;24.20;;;12.27;;
20482;SDS011;10400;53.198;6.592;2022-12-18T10:04:07;28.13;;;13.67;;
20482;SDS011;10400;53.198;6.592;2022-12-18T10:06:39;26.87;;;13.20;;
20482;SDS011;10400;53.198;6.592;2022-12-18T10:09:20;24.97;;;11.77;;
20482;SDS011;10400;53.198;6.592;2022-12-18T10:12:38;22.60;;;11.83;;
20482;SDS011;10400;53.198;6.592;2022-12-18T10:17:54;18.63;;;10.73;;
20482;SDS011;10400;53.198;6.592;2022-12-18T10:20:35;23.80;;;12.40;;
20482;SDS011;10400;53.198;6.592;2022-12-18T10:23:16;22.87;;;11.47;;
20482;SDS011;10400;53.198;6.592;2022-12-18T10:26:04;24.53;;;11.33;;
20482;SDS011;10400;53.198;6.592;2022-12-18T10:28:38;21.87;;;11.37;;
20482;SDS011;10400;53.198;6.592;2022-12-18T10:31:06;21.23;;;11.53;;
20482;SDS011;10400;53.198;6.592;2022-12-18T10:33:37;17.90;;;9.60;;
20482;SDS011;10400;53.198;6.592;2022-12-18T10:36:02;19.33;;;9.83;;
20482;SDS011;10400;53.198;6.592;2022-12-18T10:38:31;20.87;;;11.27;;
20482;SDS011;10400;53.198;6.592;2022-12-18T10:40:58;17.10;;;10.50;;
20482;SDS011;10400;53.198;6.592;2022-12-18T10:43:35;18.70;;;10.30;;
20482;SDS011;10400;53.198;6.592;2022-12-18T10:46:24;16.83;;;9.80;;
20482;SDS011;10400;53.198;6.592;2022-12-18T10:48:50;16.10;;;9.23;;
20482;SDS011;10400;53.198;6.592;2022-12-18T10:51:27;15.57;;;8.60;;
20482;SDS011;10400;53.198;6.592;2022-12-18T10:56:31;14.43;;;8.80;;
20482;SDS011;10400;53.198;6.592;2022-12-18T10:59:03;16.67;;;9.47;;
20482;SDS011;10400;53.198;6.592;2022-12-18T11:01:50;14.27;;;8.97;;
20482;SDS011;10400;53.198;6.592;2022-12-18T11:04:18;15.37;;;9.20;;
20482;SDS011;10400;53.198;6.592;2022-12-18T11:06:59;15.23;;;8.70;;
20482;SDS011;10400;53.198;6.592;2022-12-18T11:09:29;16.27;;;8.33;;
20482;SDS011;10400;53.198;6.592;2022-12-18T11:11:58;13.63;;;8.30;;
20482;SDS011;10400;53.198;6.592;2022-12-18T11:14:30;13.77;;;8.30;;
20482;SDS011;10400;53.198;6.592;2022-12-18T11:17:16;16.67;;;8.30;;
20482;SDS011;10400;53.198;6.592;2022-12-18T11:19:44;14.50;;;8.03;;
20482;SDS011;10400;53.198;6.592;2022-12-18T11:22:23;15.77;;;7.70;;
20482;SDS011;10400;53.198;6.592;2022-12-18T11:27:33;12.80;;;7.27;;
20482;SDS011;10400;53.198;6.592;2022-12-18T11:30:13;12.93;;;7.33;;
20482;SDS011;10400;53.198;6.592;2022-12-18T11:32:46;11.63;;;7.47;;
20482;SDS011;10400;53.198;6.592;2022-12-18T11:38:17;13.77;;;7.37;;
20482;SDS011;10400;53.198;6.592;2022-12-18T11:41:13;13.27;;;7.07;;
20482;SDS011;10400;53.198;6.592;2022-12-18T11:43:52;12.07;;;7.10;;
20482;SDS011;10400;53.198;6.592;2022-12-18T11:46:24;11.73;;;7.17;;
20482;SDS011;10400;53.198;6.592;2022-12-18T11:54:12;13.10;;;7.63;;
20482;SDS011;10400;53.198;6.592;2022-12-18T11:56:43;11.30;;;7.13;;
20482;SDS011;10400;53.198;6.592;2022-12-18T12:29:14;16.60;;;6.73;;
20482;SDS011;10400;53.198;6.592;2022-12-18T12:37:38;9.70;;;6.37;;
20482;SDS011;10400;53.198;6.592;2022-12-18T12:40:26;9.20;;;5.53;;
20482;SDS011;10400;53.198;6.592;2022-12-18T12:42:55;8.57;;;5.43;;
20482;SDS011;10400;53.198;6.592;2022-12-18T12:48:34;10.73;;;6.53;;
20482;SDS011;10400;53.198;6.592;2022-12-18T12:51:19;8.37;;;5.10;;
20482;SDS011;10400;53.198;6.592;2022-12-18T12:53:50;13.50;;;5.97;;
20482;SDS011;10400;53.198;6.592;2022-12-18T12:56:18;9.77;;;5.60;;
20482;SDS011;10400;53.198;6.592;2022-12-18T12:58:52;9.47;;;5.40;;
20482;SDS011;10400;53.198;6.592;2022-12-18T13:01:34;8.97;;;5.13;;
20482;SDS011;10400;53.198;6.592;2022-12-18T13:13:09;10.37;;;6.30;;
20482;SDS011;10400;53.198;6.592;2022-12-18T13:25:58;11.33;;;5.93;;
20482;SDS011;10400;53.198;6.592;2022-12-18T13:28:57;9.07;;;6.03;;
20482;SDS011;10400;53.198;6.592;2022-12-18T13:34:24;10.67;;;5.87;;
20482;SDS011;10400;53.198;6.592;2022-12-18T13:36:53;13.37;;;5.40;;
20482;SDS011;10400;53.198;6.592;2022-12-18T13:39:22;9.60;;;5.50;;
20482;SDS011;10400;53.198;6.592;2022-12-18T13:41:54;8.80;;;5.40;;
20482;SDS011;10400;53.198;6.592;2022-12-18T13:44:58;10.20;;;5.20;;
20482;SDS011;10400;53.198;6.592;2022-12-18T13:47:33;9.47;;;5.77;;
20482;SDS011;10400;53.198;6.592;2022-12-18T13:50:22;10.60;;;5.93;;
20482;SDS011;10400;53.198;6.592;2022-12-18T13:52:49;10.63;;;5.80;;
20482;SDS011;10400;53.198;6.592;2022-12-18T13:55:17;12.13;;;5.70;;
20482;SDS011;10400;53.198;6.592;2022-12-18T13:57:46;10.30;;;5.90;;
20482;SDS011;10400;53.198;6.592;2022-12-18T14:02:47;10.80;;;5.70;;
20482;SDS011;10400;53.198;6.592;2022-12-18T14:05:25;8.97;;;6.10;;
20482;SDS011;10400;53.198;6.592;2022-12-18T14:07:53;7.40;;;5.27;;
20482;SDS011;10400;53.198;6.592;2022-12-18T14:10:22;10.23;;;6.10;;
20482;SDS011;10400;53.198;6.592;2022-12-18T14:12:49;9.80;;;5.77;;
20482;SDS011;10400;53.198;6.592;2022-12-18T14:20:46;10.10;;;6.07;;
20482;SDS011;10400;53.198;6.592;2022-12-18T14:25:57;9.80;;;5.97;;
20482;SDS011;10400;53.198;6.592;2022-12-18T14:28:24;12.67;;;6.10;;
20482;SDS011;10400;53.198;6.592;2022-12-18T14:30:51;9.67;;;6.27;;
20482;SDS011;10400;53.198;6.592;2022-12-18T14:33:21;10.80;;;6.03;;
20482;SDS011;10400;53.198;6.592;2022-12-18T14:35:52;12.17;;;6.53;;
20482;SDS011;10400;53.198;6.592;2022-12-18T14:41:05;10.87;;;6.20;;
20482;SDS011;10400;53.198;6.592;2022-12-18T14:43:39;11.17;;;6.97;;
20482;SDS011;10400;53.198;6.592;2022-12-18T14:46:24;10.33;;;6.67;;
20482;SDS011;10400;53.198;6.592;2022-12-18T14:48:57;8.97;;;6.40;;
20482;SDS011;10400;53.198;6.592;2022-12-18T14:51:25;12.17;;;6.57;;
20482;SDS011;10400;53.198;6.592;2022-12-18T14:53:56;13.27;;;7.43;;
20482;SDS011;10400;53.198;6.592;2022-12-18T14:56:46;10.90;;;6.73;;
20482;SDS011;10400;53.198;6.592;2022-12-18T14:59:23;10.00;;;6.97;;
20482;SDS011;10400;53.198;6.592;2022-12-18T15:04:59;10.37;;;6.43;;
20482;SDS011;10400;53.198;6.592;2022-12-18T15:07:48;11.67;;;6.63;;
20482;SDS011;10400;53.198;6.592;2022-12-18T15:10:29;10.43;;;6.90;;
20482;SDS011;10400;53.198;6.592;2022-12-18T15:23:24;10.77;;;7.17;;
20482;SDS011;10400;53.198;6.592;2022-12-18T15:26:06;11.90;;;6.90;;
20482;SDS011;10400;53.198;6.592;2022-12-18T15:33:41;11.17;;;6.97;;
20482;SDS011;10400;53.198;6.592;2022-12-18T15:36:19;11.80;;;7.63;;
20482;SDS011;10400;53.198;6.592;2022-12-18T15:38:47;16.00;;;8.00;;
20482;SDS011;10400;53.198;6.592;2022-12-18T15:41:17;13.23;;;7.80;;
20482;SDS011;10400;53.198;6.592;2022-12-18T15:43:45;12.17;;;7.63;;
20482;SDS011;10400;53.198;6.592;2022-12-18T15:46:12;11.17;;;7.70;;
20482;SDS011;10400;53.198;6.592;2022-12-18T15:48:41;12.07;;;7.50;;
20482;SDS011;10400;53.198;6.592;2022-12-18T15:51:12;13.70;;;7.43;;
20482;SDS011;10400;53.198;6.592;2022-12-18T15:53:50;14.23;;;8.10;;
20482;SDS011;10400;53.198;6.592;2022-12-18T15:56:18;15.03;;;8.50;;
20482;SDS011;10400;53.198;6.592;2022-12-18T15:59:04;16.03;;;7.53;;
20482;SDS011;10400;53.198;6.592;2022-12-18T16:01:38;14.80;;;8.27;;
20482;SDS011;10400;53.198;6.592;2022-12-18T16:04:04;15.30;;;8.60;;
20482;SDS011;10400;53.198;6.592;2022-12-18T16:06:30;12.33;;;7.97;;
20482;SDS011;10400;53.198;6.592;2022-12-18T16:08:56;14.17;;;8.40;;
20482;SDS011;10400;53.198;6.592;2022-12-18T16:14:16;13.80;;;8.20;;
20482;SDS011;10400;53.198;6.592;2022-12-18T16:16:44;17.10;;;8.10;;
20482;SDS011;10400;53.198;6.592;2022-12-18T16:19:11;16.20;;;8.83;;
20482;SDS011;10400;53.198;6.592;2022-12-18T16:21:37;13.37;;;7.97;;
20482;SDS011;10400;53.198;6.592;2022-12-18T16:24:03;13.20;;;7.80;;
20482;SDS011;10400;53.198;6.592;2022-12-18T16:26:28;14.90;;;8.23;;
20482;SDS011;10400;53.198;6.592;2022-12-18T16:28:57;15.03;;;8.30;;
20482;SDS011;10400;53.198;6.592;2022-12-18T16:31:22;16.03;;;9.10;;
20482;SDS011;10400;53.198;6.592;2022-12-18T16:34:09;21.00;;;8.23;;
20482;SDS011;10400;53.198;6.592;2022-12-18T16:36:35;13.57;;;8.30;;
20482;SDS011;10400;53.198;6.592;2022-12-18T16:39:01;16.00;;;8.20;;
20482;SDS011;10400;53.198;6.592;2022-12-18T16:41:27;17.20;;;8.73;;
20482;SDS011;10400;53.198;6.592;2022-12-18T16:44:02;15.40;;;8.77;;
20482;SDS011;10400;53.198;6.592;2022-12-18T16:46:28;12.87;;;7.67;;
20482;SDS011;10400;53.198;6.592;2022-12-18T16:48:53;17.13;;;8.87;;
20482;SDS011;10400;53.198;6.592;2022-12-18T16:51:19;11.77;;;7.30;;
20482;SDS011;10400;53.198;6.592;2022-12-18T16:53:45;14.20;;;8.33;;
20482;SDS011;10400;53.198;6.592;2022-12-18T16:56:10;13.53;;;8.23;;
20482;SDS011;10400;53.198;6.592;2022-12-18T16:58:36;14.07;;;7.90;;
20482;SDS011;10400;53.198;6.592;2022-12-18T17:01:06;17.53;;;9.00;;
20482;SDS011;10400;53.198;6.592;2022-12-18T17:03:35;15.90;;;8.10;;
20482;SDS011;10400;53.198;6.592;2022-12-18T17:06:02;14.47;;;8.50;;